createdAt,value
2023-08-15T00:03:07.883Z,91.81
2023-08-15T00:08:10.485Z,91.04
2023-08-15T00:13:14.323Z,91.54
2023-08-15T00:18:16.859Z,91.24
2023-08-15T00:23:19.444Z,91.17
2023-08-15T00:28:23.302Z,91.53
2023-08-15T00:33:25.879Z,91.48
2023-08-15T00:38:28.415Z,91.74
2023-08-15T00:43:32.239Z,92.36
2023-08-15T00:48:35.480Z,92.32
2023-08-15T00:53:38.200Z,91.69
2023-08-15T00:58:43.134Z,92.34
2023-08-15T01:03:46.999Z,92.65
2023-08-15T01:08:50.121Z,92.68
2023-08-15T01:14:01.798Z,93.60
2023-08-15T01:19:09.560Z,93.76
2023-08-15T01:24:13.627Z,94.38
2023-08-15T01:29:16.145Z,95.09
2023-08-15T01:34:23.002Z,95.61
2023-08-15T01:39:30.673Z,95.24
2023-08-15T01:44:35.648Z,95.80
2023-08-15T01:49:38.186Z,96.28
2023-08-15T01:54:42.320Z,96.81
2023-08-15T01:59:45.110Z,97.36
2023-08-15T02:04:47.689Z,97.86
2023-08-15T02:09:51.552Z,98.66
2023-08-15T02:14:54.071Z,98.94
2023-08-15T02:19:57.161Z,99.57
2023-08-15T02:25:01.004Z,99.53
2023-08-15T02:30:04.396Z,99.96
2023-08-15T02:35:08.089Z,99.96
2023-08-15T02:40:13.303Z,100.00
2023-08-15T02:45:15.919Z,100.00
2023-08-15T02:50:18.595Z,100.00
2023-08-15T02:55:22.473Z,100.00
2023-08-15T03:00:25.086Z,100.00
2023-08-15T03:05:27.592Z,100.00
2023-08-15T03:10:33.893Z,100.00
2023-08-15T03:15:37.844Z,100.00
2023-08-15T03:20:40.363Z,100.00
2023-08-15T03:25:44.205Z,100.00
2023-08-15T03:30:46.739Z,100.00
2023-08-15T03:35:50.548Z,100.00
2023-08-15T03:41:02.686Z,100.00
2023-08-15T03:46:07.190Z,100.00
2023-08-15T03:51:12.809Z,100.00
2023-08-15T03:56:16.969Z,100.00
2023-08-15T04:01:19.693Z,100.00
2023-08-15T04:06:22.271Z,100.00
2023-08-15T04:11:26.140Z,100.00
2023-08-15T04:16:29.804Z,100.00
2023-08-15T04:21:32.418Z,100.00
2023-08-15T04:26:36.254Z,100.00
2023-08-15T04:31:38.853Z,100.00
2023-08-15T04:36:45.004Z,100.00
2023-08-15T04:41:48.980Z,100.00
2023-08-15T04:46:51.490Z,100.00
2023-08-15T04:51:54.020Z,100.00
2023-08-15T04:56:57.915Z,100.00
2023-08-15T05:02:00.423Z,100.00
2023-08-15T05:07:02.954Z,100.00
2023-08-15T05:12:07.439Z,100.00
2023-08-15T05:17:09.965Z,100.00
2023-08-15T05:22:12.564Z,100.00
2023-08-15T05:27:16.568Z,100.00
2023-08-15T05:32:19.143Z,100.00
2023-08-15T05:37:22.018Z,100.00
2023-08-15T05:42:26.152Z,100.00
2023-08-15T05:47:28.792Z,100.00
2023-08-15T05:52:31.401Z,100.00
2023-08-15T05:57:35.303Z,100.00
2023-08-15T06:02:39.959Z,100.00
2023-08-15T06:07:42.957Z,100.00
2023-08-15T06:12:46.803Z,100.00
2023-08-15T06:17:49.420Z,100.00
2023-08-15T06:22:52.066Z,100.00
2023-08-15T06:27:55.939Z,100.00
2023-08-15T06:32:58.528Z,100.00
2023-08-15T06:38:01.067Z,100.00
2023-08-15T06:43:05.207Z,100.00
2023-08-15T06:48:08.338Z,100.00
2023-08-15T06:53:10.894Z,100.00
2023-08-15T06:58:14.750Z,100.00
2023-08-15T07:03:18.544Z,100.00
2023-08-15T07:08:21.108Z,100.00
2023-08-15T07:13:25.333Z,100.00
2023-08-15T07:18:27.850Z,100.00
2023-08-15T07:23:31.910Z,99.65
2023-08-15T07:28:35.969Z,99.21
2023-08-15T07:33:38.531Z,98.08
2023-08-15T07:38:41.173Z,97.46
2023-08-15T07:43:45.041Z,97.22
2023-08-15T07:48:47.670Z,97.03
2023-08-15T07:53:50.312Z,96.66
2023-08-15T07:58:54.142Z,96.49
2023-08-15T08:03:56.813Z,95.49
2023-08-15T08:09:00.060Z,94.99
2023-08-15T08:14:04.665Z,93.70
2023-08-15T08:19:07.274Z,93.01
2023-08-15T08:24:09.875Z,92.21
2023-08-15T08:29:13.742Z,91.21
2023-08-15T08:34:16.301Z,91.36
2023-08-15T08:39:31.282Z,91.12
2023-08-15T08:44:37.724Z,90.82
2023-08-15T08:49:40.390Z,90.32
2023-08-15T08:59:55.246Z,88.83
2023-08-15T09:04:57.894Z,88.88
2023-08-15T09:10:00.421Z,88.29
2023-08-15T09:15:06.557Z,88.41
2023-08-15T09:20:11.710Z,88.37
2023-08-15T09:25:16.369Z,88.04
2023-08-15T09:30:20.380Z,87.85
2023-08-15T09:35:23.163Z,87.21
2023-08-15T09:40:26.710Z,86.98
2023-08-15T09:45:31.690Z,86.34
2023-08-15T09:50:35.321Z,86.19
2023-08-15T09:55:39.631Z,85.31
2023-08-15T10:00:43.599Z,85.57
2023-08-15T10:05:49.648Z,85.78
2023-08-15T10:10:54.019Z,86.61
2023-08-15T10:15:58.906Z,86.65
2023-08-15T10:21:03.263Z,88.23
2023-08-15T10:26:07.005Z,90.10
2023-08-15T10:31:11.149Z,91.58
2023-08-15T10:36:13.820Z,92.99
2023-08-15T10:41:18.766Z,94.37
2023-08-15T10:46:31.959Z,94.49
2023-08-15T10:51:35.894Z,95.35
2023-08-15T10:56:40.134Z,95.01
2023-08-15T11:01:45.848Z,95.51
2023-08-15T11:06:50.393Z,95.12
2023-08-15T11:11:52.922Z,93.85
2023-08-15T11:16:56.854Z,93.05
2023-08-15T11:21:59.524Z,92.07
2023-08-15T11:27:02.523Z,90.85
2023-08-15T11:32:06.734Z,91.22
2023-08-15T11:37:12.335Z,89.73
2023-08-15T11:42:16.298Z,89.49
2023-08-15T11:47:20.820Z,89.05
2023-08-15T11:52:23.708Z,88.78
2023-08-15T11:57:35.608Z,87.30
2023-08-15T12:02:43.993Z,87.05
2023-08-15T12:07:48.325Z,85.92
2023-08-15T12:12:50.863Z,86.50
2023-08-15T12:17:54.726Z,85.64
2023-08-15T12:22:57.824Z,84.93
2023-08-15T12:28:00.383Z,83.33
2023-08-15T12:33:06.178Z,82.12
2023-08-15T12:38:08.932Z,81.65
2023-08-15T12:43:11.604Z,81.92
2023-08-15T12:48:15.486Z,82.08
2023-08-15T12:53:18.093Z,82.17
2023-08-15T12:58:20.626Z,82.04
2023-08-15T13:03:24.657Z,81.38
2023-08-15T13:08:27.325Z,80.98
2023-08-15T13:13:29.852Z,81.09
2023-08-15T13:18:33.829Z,80.74
2023-08-15T13:23:36.396Z,79.75
2023-08-15T13:28:38.905Z,80.08
2023-08-15T13:33:43.794Z,79.76
2023-08-15T13:38:46.408Z,79.15
2023-08-15T13:43:49.726Z,78.12
2023-08-15T13:48:53.568Z,78.07
2023-08-15T13:53:56.320Z,78.32
2023-08-15T13:58:58.856Z,78.91
2023-08-15T14:04:02.829Z,78.82
2023-08-15T14:09:06.010Z,78.05
2023-08-15T14:14:08.566Z,78.86
2023-08-15T14:19:13.619Z,78.43
2023-08-15T14:24:16.176Z,78.40
2023-08-15T14:29:18.697Z,78.35
2023-08-15T14:34:22.928Z,77.68
2023-08-15T14:39:25.457Z,77.57
2023-08-15T14:44:28.270Z,77.42
2023-08-15T14:49:32.239Z,75.71
2023-08-15T14:54:34.774Z,75.67
2023-08-15T14:59:37.350Z,75.56
2023-08-15T15:04:41.694Z,75.51
2023-08-15T15:09:44.200Z,75.59
2023-08-15T15:14:46.740Z,75.34
2023-08-15T15:19:50.649Z,75.69
2023-08-15T15:24:53.202Z,76.11
2023-08-15T15:29:55.844Z,75.97
2023-08-15T15:34:59.683Z,76.14
2023-08-15T15:40:02.363Z,76.38
2023-08-15T15:45:05.231Z,76.05
2023-08-15T15:50:09.772Z,76.11
2023-08-15T15:55:12.460Z,75.80
2023-08-15T16:00:17.259Z,76.39
2023-08-15T16:05:21.167Z,76.30
2023-08-15T16:10:23.776Z,76.87
2023-08-15T16:15:26.411Z,76.83
2023-08-15T16:20:30.265Z,77.47
2023-08-15T16:25:32.932Z,77.81
2023-08-15T16:30:35.455Z,78.54
2023-08-15T16:35:39.444Z,80.52
2023-08-15T16:40:42.034Z,82.69
2023-08-15T16:45:46.480Z,84.14
2023-08-15T16:50:50.549Z,85.51
2023-08-15T16:55:53.181Z,86.48
2023-08-15T17:00:55.716Z,87.84
2023-08-15T17:06:00.746Z,87.95
2023-08-15T17:11:03.299Z,87.74
2023-08-15T17:16:07.107Z,87.90
2023-08-15T17:21:10.986Z,88.32
2023-08-15T17:26:13.560Z,88.68
2023-08-15T17:31:16.916Z,89.64
2023-08-15T17:36:20.834Z,90.71
2023-08-15T17:41:23.336Z,91.71
2023-08-15T17:46:25.923Z,92.64
2023-08-15T17:51:29.834Z,93.24
2023-08-15T17:56:32.377Z,93.55
2023-08-15T18:01:36.125Z,93.97
2023-08-15T18:06:40.036Z,94.71
2023-08-15T18:11:42.630Z,94.64
2023-08-15T18:16:46.340Z,94.49
2023-08-15T18:21:51.656Z,94.50
2023-08-15T18:26:54.259Z,94.61
2023-08-15T18:31:57.227Z,94.77
2023-08-15T18:37:01.128Z,94.90
2023-08-15T18:42:03.757Z,95.34
2023-08-15T18:47:07.397Z,95.97
2023-08-15T18:52:11.333Z,96.41
2023-08-15T18:57:13.868Z,97.33
2023-08-15T19:02:16.400Z,97.65
2023-08-15T19:07:20.236Z,97.28
2023-08-15T19:12:23.338Z,98.12
2023-08-15T19:17:26.085Z,97.66
2023-08-15T19:22:29.980Z,98.52
2023-08-15T19:27:32.558Z,99.32
2023-08-15T19:32:35.432Z,99.78
2023-08-15T19:37:39.341Z,100.00
2023-08-15T19:42:43.426Z,100.00
2023-08-15T19:47:45.988Z,100.00
2023-08-15T19:52:49.947Z,100.00
2023-08-15T19:57:52.499Z,100.00
2023-08-15T20:02:55.032Z,100.00
2023-08-15T20:07:59.242Z,100.00
2023-08-15T20:13:01.783Z,100.00
2023-08-15T20:18:04.602Z,100.00
2023-08-15T20:23:08.498Z,100.00
2023-08-15T20:28:12.419Z,100.00
2023-08-15T20:33:15.085Z,100.00
2023-08-15T20:38:20.188Z,100.00
2023-08-15T20:43:22.704Z,100.00
2023-08-15T20:48:25.242Z,100.00
2023-08-15T20:53:29.087Z,100.00
2023-08-15T20:58:33.106Z,100.00
2023-08-15T21:03:35.769Z,100.00
2023-08-15T21:08:39.606Z,100.00
2023-08-15T21:13:42.140Z,100.00
2023-08-15T21:18:44.669Z,100.00
2023-08-15T21:23:48.525Z,100.00
2023-08-15T21:28:51.057Z,100.00
2023-08-15T21:33:53.564Z,100.00
2023-08-15T21:38:57.411Z,100.00
2023-08-15T21:43:59.928Z,100.00
2023-08-15T21:49:02.491Z,100.00
2023-08-15T21:54:06.496Z,100.00
2023-08-15T21:59:09.022Z,100.00
2023-08-15T22:04:11.571Z,100.00
2023-08-15T22:09:15.454Z,100.00
2023-08-15T22:14:18.196Z,100.00
2023-08-15T22:19:20.766Z,100.00
2023-08-15T22:24:24.772Z,100.00
2023-08-15T22:29:27.525Z,100.00
2023-08-15T22:34:30.081Z,100.00
2023-08-15T22:39:33.943Z,100.00
2023-08-15T22:44:36.556Z,100.00
2023-08-15T22:49:39.117Z,100.00
2023-08-15T22:54:43.059Z,100.00
2023-08-15T22:59:45.604Z,100.00
2023-08-15T23:04:48.242Z,100.00
2023-08-15T23:09:52.136Z,100.00
2023-08-15T23:14:54.917Z,100.00
2023-08-15T23:19:57.471Z,100.00
2023-08-15T23:25:03.668Z,100.00
2023-08-15T23:30:07.628Z,100.00
2023-08-15T23:35:13.604Z,100.00
2023-08-15T23:40:19.377Z,100.00
2023-08-15T23:45:21.938Z,100.00
2023-08-15T23:50:24.475Z,100.00
2023-08-15T23:55:28.601Z,100.00
